createdAt,value
2023-02-15T15:52:32.315Z,55.80
2023-02-15T15:55:06.319Z,55.79
2023-02-15T15:57:39.141Z,56.45
2023-02-15T16:00:26.648Z,56.66
2023-02-15T16:02:54.208Z,57.41
2023-02-15T16:05:20.827Z,56.67
2023-02-15T16:07:47.464Z,57.30
2023-02-15T16:10:27.152Z,58.09
2023-02-15T16:12:55.444Z,58.58
2023-02-15T16:15:25.252Z,58.73
2023-02-15T16:17:55.918Z,58.84
2023-02-15T16:20:45.421Z,59.33
2023-02-15T16:23:32.768Z,59.11
2023-02-15T16:26:20.255Z,59.88
2023-02-15T16:29:18.952Z,60.72
2023-02-15T16:32:02.612Z,61.40
2023-02-15T16:34:33.265Z,61.67
2023-02-15T16:37:16.762Z,61.97
2023-02-15T16:39:45.654Z,61.88
2023-02-15T16:42:15.687Z,62.90
2023-02-15T16:44:42.433Z,63.44
2023-02-15T16:47:17.665Z,63.43
2023-02-15T16:49:49.943Z,62.72
2023-02-15T16:52:22.837Z,63.66
2023-02-15T16:54:55.337Z,64.27
2023-02-15T16:57:29.545Z,65.29
2023-02-15T17:00:01.961Z,64.87
2023-02-15T17:02:53.041Z,66.15
2023-02-15T17:05:20.795Z,65.83
2023-02-15T17:08:30.978Z,66.29
2023-02-15T17:11:00.351Z,67.87
2023-02-15T17:13:29.334Z,67.34
2023-02-15T17:16:06.601Z,68.80
2023-02-15T17:18:46.588Z,68.30
2023-02-15T17:21:28.809Z,68.49
2023-02-15T17:24:01.164Z,69.66
2023-02-15T17:26:27.549Z,69.80
2023-02-15T17:28:57.591Z,69.83
2023-02-15T17:31:31.749Z,70.41
2023-02-15T17:33:59.798Z,70.96
2023-02-15T17:36:30.177Z,71.11
2023-02-15T17:39:05.286Z,70.36
2023-02-15T17:41:35.089Z,71.41
2023-02-15T17:44:03.824Z,71.63
2023-02-15T17:46:36.655Z,71.55
2023-02-15T17:49:04.595Z,71.02
2023-02-15T17:51:32.168Z,71.47
2023-02-15T17:54:17.245Z,71.33
2023-02-15T17:56:43.785Z,71.56
2023-02-15T17:59:12.356Z,71.96
2023-02-15T18:02:09.856Z,72.17
2023-02-15T18:04:55.805Z,72.08
2023-02-15T18:07:40.813Z,72.05
2023-02-15T18:10:34.327Z,71.11
2023-02-15T18:13:03.080Z,71.05
2023-02-15T18:15:30.538Z,70.22
2023-02-15T18:17:57.311Z,70.64
2023-02-15T18:20:36.723Z,69.27
2023-02-15T18:23:03.449Z,69.66
2023-02-15T18:25:29.947Z,69.66
2023-02-15T18:27:56.523Z,69.59
2023-02-15T18:30:27.255Z,69.16
2023-02-15T18:32:56.933Z,69.33
2023-02-15T18:35:26.623Z,69.88
2023-02-15T18:37:53.945Z,69.18
2023-02-15T18:40:28.859Z,69.42
2023-02-15T18:42:56.995Z,68.86
2023-02-15T18:45:28.532Z,67.48
2023-02-15T18:47:55.233Z,67.01
2023-02-15T18:50:24.676Z,66.70
2023-02-15T18:52:51.604Z,66.10
2023-02-15T18:55:26.693Z,65.87
2023-02-15T18:57:56.069Z,66.32
2023-02-15T19:00:44.351Z,65.97
2023-02-15T19:03:20.156Z,65.35
2023-02-15T19:05:55.290Z,65.23
2023-02-15T19:08:26.956Z,64.85
2023-02-15T19:10:53.402Z,64.13
2023-02-15T19:13:23.098Z,63.16
2023-02-15T19:15:52.330Z,62.77
2023-02-15T19:18:19.958Z,62.56
2023-02-15T19:20:48.946Z,62.45
2023-02-15T19:23:23.183Z,63.22
2023-02-15T19:25:55.469Z,63.99
2023-02-15T19:28:34.211Z,64.29
2023-02-15T19:31:00.809Z,63.79
2023-02-15T19:33:28.298Z,64.35
2023-02-15T19:35:57.326Z,64.44
2023-02-15T19:38:29.047Z,65.61
2023-02-15T19:41:01.613Z,66.02
2023-02-15T19:43:31.294Z,66.79
2023-02-15T19:45:57.900Z,67.78
2023-02-15T19:48:29.124Z,68.58
2023-02-15T19:50:57.950Z,68.83
2023-02-15T19:53:27.225Z,69.49
2023-02-15T19:55:54.466Z,69.85
2023-02-15T19:58:22.181Z,70.17
2023-02-15T20:00:50.922Z,69.42
2023-02-15T20:03:17.612Z,68.99
2023-02-15T20:05:44.686Z,68.09
2023-02-15T20:08:19.360Z,67.71
2023-02-15T20:10:46.162Z,67.78
2023-02-15T20:13:26.784Z,67.17
2023-02-15T20:15:54.408Z,67.52
2023-02-15T20:18:22.737Z,68.01
2023-02-15T20:20:55.216Z,68.01
2023-02-15T20:23:52.276Z,67.82
2023-02-15T20:26:21.495Z,67.85
2023-02-15T20:28:53.221Z,67.68
2023-02-15T20:31:22.804Z,68.05
2023-02-15T20:33:50.437Z,68.37
2023-02-15T20:36:20.912Z,68.25
2023-02-15T20:38:47.617Z,68.00
2023-02-15T20:41:39.823Z,67.86
2023-02-15T20:44:22.660Z,66.89
2023-02-15T20:46:55.442Z,66.73
2023-02-15T20:49:26.593Z,66.62
2023-02-15T20:51:54.698Z,67.05
2023-02-15T20:54:24.465Z,67.14
2023-02-15T20:56:52.251Z,67.71
2023-02-15T20:59:23.435Z,67.61
2023-02-15T21:01:51.737Z,68.13
2023-02-15T21:04:29.271Z,67.75
2023-02-15T21:06:59.842Z,68.01
2023-02-15T21:09:26.689Z,68.52
2023-02-15T21:11:55.611Z,68.55
2023-02-15T21:14:23.989Z,68.89
2023-02-15T21:16:51.548Z,68.82
2023-02-15T21:19:29.678Z,69.29
2023-02-15T21:21:56.662Z,69.37
2023-02-15T21:24:29.060Z,69.92
2023-02-15T21:27:01.087Z,69.87
2023-02-15T21:29:29.298Z,70.43
2023-02-15T21:31:58.510Z,70.41
2023-02-15T21:34:25.612Z,71.04
2023-02-15T21:36:52.331Z,71.43
2023-02-15T21:39:24.324Z,71.35
2023-02-15T21:42:13.473Z,71.70
2023-02-15T21:45:07.046Z,71.62
2023-02-15T21:47:51.750Z,71.61
2023-02-15T21:50:45.394Z,72.49
2023-02-15T21:53:25.416Z,72.74
2023-02-15T21:55:59.929Z,73.08
2023-02-15T21:58:33.188Z,73.72
2023-02-15T22:01:10.731Z,74.39
2023-02-15T22:03:40.954Z,74.92
2023-02-15T22:06:15.855Z,74.26
2023-02-15T22:08:43.046Z,74.74
2023-02-15T22:11:24.674Z,74.99
2023-02-15T22:13:53.815Z,74.58
2023-02-15T22:16:25.676Z,75.15
2023-02-15T22:18:52.095Z,75.43
2023-02-15T22:21:19.148Z,75.50
2023-02-15T22:23:47.029Z,75.73
2023-02-15T22:26:24.990Z,76.24
2023-02-15T22:28:51.630Z,76.22
2023-02-15T22:31:22.812Z,75.91
2023-02-15T22:33:54.556Z,76.19
2023-02-15T22:36:29.571Z,76.41
2023-02-15T22:38:57.243Z,76.85
2023-02-15T22:41:28.708Z,77.08
2023-02-15T22:43:58.920Z,76.87
2023-02-15T22:46:26.408Z,76.96
2023-02-15T22:48:58.785Z,77.20
2023-02-15T22:51:25.351Z,77.12
2023-02-15T22:53:55.387Z,76.74
2023-02-15T22:56:26.933Z,77.12
2023-02-15T22:59:05.713Z,77.32
2023-02-15T23:01:39.053Z,77.18
2023-02-15T23:04:06.004Z,77.13
2023-02-15T23:06:38.538Z,77.12
2023-02-15T23:09:07.670Z,77.73
2023-02-15T23:11:45.900Z,77.19
2023-02-15T23:14:44.371Z,77.56
2023-02-15T23:17:11.062Z,77.93
2023-02-15T23:19:46.781Z,77.44
2023-02-15T23:22:17.648Z,77.28
2023-02-15T23:25:02.961Z,77.60
2023-02-15T23:27:55.978Z,78.13
2023-02-15T23:30:28.220Z,77.44
2023-02-15T23:32:57.211Z,78.09
2023-02-15T23:35:24.289Z,78.10
2023-02-15T23:37:59.687Z,78.27
2023-02-15T23:40:47.637Z,78.66
2023-02-15T23:43:27.621Z,78.21
2023-02-15T23:45:57.106Z,78.10
2023-02-15T23:48:37.193Z,78.45
2023-02-15T23:51:07.038Z,79.08
2023-02-15T23:53:41.480Z,79.36
2023-02-15T23:56:16.864Z,79.18
2023-02-15T23:58:49.893Z,78.73
